Ute Mountain Indian Reservat, Colorado
Current Conditions -  °F | °C
As of 5:53 AM on Tuesday 21 Oct 2014 (Local Time) from KCEZ Reporting Station
Scattered Clouds Scattered Clouds  
Wind Chill: 52°   Ceiling: Unl
Heat Index: 52°   Visibility: 10mi
Dew Point: 42°   Wind: 0mph
Humidity: 69%   Direction: NA
Pressure: 30.13"   Gusts: NA
Location:  37.1336°N, 108.707°W
Report Text: KCEZ 211153Z AUTO 00000KT 10SM FEW080 SCT100 11/06 A3013 RMK AO2 SLP146 T01110056 10144 20094 56005
Loading
Personal Weather Stations






























Interactive Weather Map
Tropical Storm Tracking
New forecast layout! Learn more

10-Day Weather Forecast

Advertisements
Track Severe Weather on mobile